Time;durP1;ratioP1;P1;durP2;ratioP2;P2;SDS_P1;SDS_P2;PMS_P1;PMS_P2;Temp;Humidity;BMP_temperature;BMP_pressure;BME280_temperature;BME280_humidity;BME280_pressure;Samples;Min_cycle;Max_cycle;Signal;HPM_P1;HPM_P2
2021/09/10 00:01:48;;;;;;;7.43;4.93;;;;;;;22.65;53.77;101539.78;143724;592;47008;-93
2021/09/10 00:04:15;;;;;;;7.55;5.45;;;;;;;22.65;54.05;101528.81;143721;582;47004;-89
2021/09/10 00:06:42;;;;;;;8.43;5.30;;;;;;;22.64;53.93;101538.13;143719;607;47004;-90
2021/09/10 00:09:09;;;;;;;7.53;5.07;;;;;;;22.64;54.24;101540.03;143727;588;47002;-90
2021/09/10 00:11:37;;;;;;;7.78;5.07;;;;;;;22.65;54.51;101539.78;143721;572;48010;-89
2021/09/10 00:14:04;;;;;;;6.37;5.07;;;;;;;22.64;54.29;101554.53;143725;599;47004;-90
2021/09/10 00:16:31;;;;;;;8.02;5.22;;;;;;;22.64;54.57;101549.06;143727;700;45922;-91
2021/09/10 00:18:58;;;;;;;6.78;5.43;;;;;;;22.62;54.80;101547.66;143726;625;47002;-90
2021/09/10 00:21:26;;;;;;;6.85;5.32;;;;;;;22.60;54.86;101550.66;143722;588;47006;-91
2021/09/10 00:23:53;;;;;;;7.55;5.18;;;;;;;22.61;54.70;101557.81;143723;572;47013;-90
2021/09/10 00:26:20;;;;;;;5.95;5.32;;;;;;;22.60;55.22;101555.31;143723;569;46010;-90
2021/09/10 00:28:47;;;;;;;9.05;4.90;;;;;;;22.59;54.92;101559.16;143728;639;47010;-92
2021/09/10 00:31:14;;;;;;;5.25;4.37;;;;;;;22.58;55.00;101552.03;143721;568;50014;-89
2021/09/10 00:33:42;;;;;;;8.32;4.87;;;;;;;22.58;54.59;101557.50;143721;631;48002;-92
2021/09/10 00:36:09;;;;;;;5.80;4.90;;;;;;;22.56;54.59;101546.78;143724;733;46013;-88
2021/09/10 00:38:36;;;;;;;8.45;4.90;;;;;;;22.56;54.69;101539.41;143724;592;48000;-90
2021/09/10 00:41:03;;;;;;;6.70;4.60;;;;;;;22.57;55.36;101548.44;143724;629;47009;-90
2021/09/10 00:43:30;;;;;;;6.37;4.75;;;;;;;22.58;55.03;101550.09;143716;581;50022;-89
2021/09/10 00:45:58;;;;;;;6.22;4.28;;;;;;;22.56;55.08;101538.56;143722;695;48004;-91
2021/09/10 00:48:26;;;;;;;5.82;4.07;;;;;;;22.58;54.33;101541.06;143728;675;47007;-91
2021/09/10 00:50:54;;;;;;;8.68;4.32;;;;;;;22.61;53.96;101540.53;143726;593;47010;-91
2021/09/10 00:53:22;;;;;;;6.28;4.30;;;;;;;22.63;53.39;101536.47;143720;611;49576;-91
2021/09/10 00:55:49;;;;;;;20.20;17.00;;;;;;;22.66;53.50;101529.63;143724;583;47010;-89
2021/09/10 00:58:16;;;;;;;7.90;5.80;;;;;;;22.67;53.02;101529.38;143725;573;49006;-90
2021/09/10 01:00:43;;;;;;;4.05;3.28;;;;;;;22.68;52.34;101524.72;143725;752;46922;-90
2021/09/10 01:03:11;;;;;;;7.00;3.45;;;;;;;22.65;52.30;101526.09;143722;573;49002;-90
2021/09/10 01:05:41;;;;;;;5.10;3.20;;;;;;;22.66;51.82;101535.09;143725;710;50006;-87
2021/09/10 01:08:10;;;;;;;7.30;3.20;;;;;;;22.67;51.73;101529.38;143725;646;47008;-91
2021/09/10 01:10:37;;;;;;;6.82;3.35;;;;;;;22.68;51.65;101530.19;143720;707;48008;-90
2021/09/10 01:13:04;;;;;;;5.30;2.87;;;;;;;22.64;51.37;101535.37;143724;626;47002;-90
2021/09/10 01:15:32;;;;;;;4.78;3.12;;;;;;;22.67;51.12;101534.03;143722;640;47006;-89
2021/09/10 01:17:58;;;;;;;5.50;2.90;;;;;;;22.67;50.81;101534.87;143724;568;47002;-90
2021/09/10 01:20:26;;;;;;;4.85;2.72;;;;;;;22.66;50.88;101533.22;143722;567;48013;-91
2021/09/10 01:22:53;;;;;;;5.72;3.35;;;;;;;22.65;51.20;101533.47;143724;584;47002;-90
2021/09/10 01:25:22;;;;;;;3.95;3.00;;;;;;;22.61;51.69;101538.63;143726;586;46004;-91
2021/09/10 01:27:54;;;;;;;2.75;2.53;;;;;;;22.61;52.16;101530.41;143727;579;47004;-91
2021/09/10 01:30:27;;;;;;;4.60;2.92;;;;;;;22.63;52.42;101541.94;143714;613;50012;-91
2021/09/10 01:32:53;;;;;;;6.05;3.33;;;;;;;22.64;52.51;101526.31;143724;597;47002;-90
2021/09/10 01:35:21;;;;;;;7.10;3.30;;;;;;;22.65;52.58;101528.81;143717;567;49002;-91
2021/09/10 01:37:48;;;;;;;6.10;3.50;;;;;;;22.67;51.83;101531.28;143727;581;47004;-90
2021/09/10 01:40:15;;;;;;;4.68;3.05;;;;;;;22.64;51.67;101524.44;143721;643;48010;-89
2021/09/10 01:42:43;;;;;;;5.18;3.42;;;;;;;22.60;52.44;101531.50;143724;639;47004;-90
2021/09/10 01:45:11;;;;;;;7.05;2.92;;;;;;;22.59;51.26;101526.31;143721;574;47002;-89
2021/09/10 01:47:39;;;;;;;5.57;2.62;;;;;;;22.58;50.80;101532.88;143726;573;47002;-90
2021/09/10 01:50:08;;;;;;;3.75;2.58;;;;;;;22.54;50.33;101530.62;143714;581;50010;-90
2021/09/10 01:52:36;;;;;;;5.82;2.85;;;;;;;22.54;50.37;101527.91;143723;612;47004;-92
2021/09/10 01:55:05;;;;;;;5.18;2.85;;;;;;;22.51;50.57;101533.03;143727;587;46002;-89
2021/09/10 01:57:32;;;;;;;5.25;2.75;;;;;;;22.47;50.46;101530.00;143726;579;47006;-90
2021/09/10 01:59:59;;;;;;;7.43;3.65;;;;;;;22.46;50.82;101530.28;143720;570;48010;-91
2021/09/10 02:02:26;;;;;;;4.40;2.78;;;;;;;22.45;51.25;101528.63;143725;580;47002;-89
2021/09/10 02:04:54;;;;;;;7.55;3.20;;;;;;;22.44;51.03;101525.06;143725;596;46002;-90
2021/09/10 02:07:24;;;;;;;4.20;3.10;;;;;;;22.41;51.04;101536.50;143726;710;48004;-87
2021/09/10 02:09:50;;;;;;;7.65;3.53;;;;;;;22.39;51.47;101527.72;143713;575;50002;-91
2021/09/10 02:12:18;;;;;;;6.07;3.25;;;;;;;22.36;51.82;101534.53;143725;574;47002;-88
2021/09/10 02:14:45;;;;;;;6.30;3.22;;;;;;;22.33;51.99;101531.50;143718;589;47008;-87
2021/09/10 02:17:12;;;;;;;4.05;3.10;;;;;;;22.32;52.08;101533.41;143728;628;47002;-88
2021/09/10 02:19:39;;;;;;;4.07;3.20;;;;;;;22.30;52.07;101540.22;143721;676;47008;-88
2021/09/10 02:22:06;;;;;;;4.45;2.97;;;;;;;22.32;52.22;101538.87;143723;667;48004;-88
2021/09/10 02:24:33;;;;;;;5.37;3.15;;;;;;;22.29;52.09;101533.09;143721;593;49014;-90
2021/09/10 02:27:00;;;;;;;4.62;3.22;;;;;;;22.30;52.29;101535.56;143725;605;47002;-88
2021/09/10 02:29:27;;;;;;;5.28;3.25;;;;;;;22.32;52.00;101543.50;143724;603;47008;-90
2021/09/10 02:31:54;;;;;;;5.03;3.17;;;;;;;22.30;52.31;101543.78;143723;599;47004;-88
2021/09/10 02:34:21;;;;;;;5.00;3.15;;;;;;;22.26;52.51;101537.16;143719;623;49009;-91
2021/09/10 02:36:48;;;;;;;5.68;3.55;;;;;;;22.26;52.44;101546.19;143726;621;47004;-90
2021/09/10 02:39:15;;;;;;;4.30;3.10;;;;;;;22.25;52.18;101539.06;143716;597;48010;-89
2021/09/10 02:41:42;;;;;;;4.40;2.95;;;;;;;22.25;51.99;101541.00;143724;719;47004;-89
2021/09/10 02:44:09;;;;;;;4.53;3.42;;;;;;;22.23;51.93;101533.03;143719;572;49004;-88
2021/09/10 02:46:39;;;;;;;9.30;6.78;;;;;;;22.22;52.03;101531.41;143727;592;47002;-89
2021/09/10 02:49:06;;;;;;;86.72;59.95;;;;;;;22.22;52.14;101534.13;143721;714;48004;-88
2021/09/10 02:51:33;;;;;;;13.65;8.27;;;;;;;22.23;52.07;101530.31;143724;728;47004;-90
2021/09/10 02:54:01;;;;;;;9.00;4.68;;;;;;;22.21;52.12;101527.00;143723;603;49002;-89
2021/09/10 02:56:28;;;;;;;5.32;3.83;;;;;;;22.21;52.34;101526.16;143729;620;47005;-88
2021/09/10 02:58:55;;;;;;;4.12;3.22;;;;;;;22.21;52.15;101520.69;143723;596;47012;-88
2021/09/10 03:01:22;;;;;;;3.83;3.37;;;;;;;22.23;51.95;101527.56;143722;708;48004;-91
2021/09/10 03:03:50;;;;;;;5.60;3.65;;;;;;;22.23;52.23;101524.84;143721;696;48003;-87
2021/09/10 03:06:17;;;;;;;5.53;3.28;;;;;;;22.21;52.08;101521.53;143724;566;47004;-90
2021/09/10 03:08:44;;;;;;;5.37;3.92;;;;;;;22.22;52.50;101525.91;143722;572;48010;-90
2021/09/10 03:11:11;;;;;;;6.03;3.37;;;;;;;22.21;52.68;101520.69;143722;567;47002;-89
2021/09/10 03:13:38;;;;;;;6.05;3.67;;;;;;;22.22;52.22;101527.81;143720;572;47004;-88
2021/09/10 03:16:06;;;;;;;8.20;3.50;;;;;;;22.17;52.66;101528.59;143728;566;47004;-89
2021/09/10 03:18:33;;;;;;;5.00;3.33;;;;;;;22.15;52.76;101535.41;143720;576;47020;-90
2021/09/10 03:21:00;;;;;;;6.85;3.78;;;;;;;22.15;52.22;101536.22;143725;713;47004;-89
2021/09/10 03:23:27;;;;;;;5.47;3.20;;;;;;;22.19;51.91;101542.00;143725;708;46002;-89
2021/09/10 03:25:54;;;;;;;4.80;3.47;;;;;;;22.20;52.38;101539.03;143727;577;47004;-89
2021/09/10 03:28:21;;;;;;;4.87;2.90;;;;;;;22.19;52.05;101533.78;143721;577;49010;-88
2021/09/10 03:30:49;;;;;;;6.03;3.03;;;;;;;22.21;51.73;101531.63;143724;592;47002;-88
2021/09/10 03:33:16;;;;;;;5.05;3.20;;;;;;;22.19;51.69;101531.91;143726;620;46004;-91
2021/09/10 03:35:43;;;;;;;8.10;3.30;;;;;;;22.18;51.60;101532.13;143727;569;47006;-91
2021/09/10 03:38:11;;;;;;;7.53;3.47;;;;;;;22.19;51.65;101534.63;143728;580;46004;-90
2021/09/10 03:40:38;;;;;;;4.93;3.42;;;;;;;22.20;51.52;101532.72;143725;682;47002;-89
2021/09/10 03:43:06;;;;;;;4.68;2.95;;;;;;;22.17;51.97;101535.97;143724;586;46002;-90
2021/09/10 03:45:34;;;;;;;7.00;3.30;;;;;;;22.16;52.15;101529.69;143726;707;47004;-89
2021/09/10 03:48:02;;;;;;;6.82;3.17;;;;;;;22.15;51.99;101538.16;143719;578;48005;-91
2021/09/10 03:50:29;;;;;;;7.55;2.78;;;;;;;22.16;52.60;101546.09;143723;703;47002;-89
2021/09/10 03:52:56;;;;;;;5.32;3.42;;;;;;;22.15;52.39;101549.91;143723;573;47006;-89
2021/09/10 03:55:23;;;;;;;5.55;3.00;;;;;;;22.11;52.69;101546.03;143724;582;50004;-90
2021/09/10 03:57:51;;;;;;;3.92;3.17;;;;;;;22.11;52.77;101549.59;143726;595;47010;-90
2021/09/10 04:00:18;;;;;;;5.28;3.20;;;;;;;22.13;52.57;101554.00;143723;579;47004;-90
2021/09/10 04:02:45;;;;;;;5.85;3.58;;;;;;;22.13;52.52;101554.81;143725;702;46000;-89
2021/09/10 04:05:13;;;;;;;4.10;3.35;;;;;;;22.14;52.64;101544.72;143727;607;47002;-89
2021/09/10 04:07:40;;;;;;;8.27;3.40;;;;;;;22.13;52.62;101549.34;143725;764;47012;-86
2021/09/10 04:10:07;;;;;;;5.65;3.58;;;;;;;22.17;52.80;101549.63;143725;668;47004;-88
2021/09/10 04:12:35;;;;;;;5.32;3.55;;;;;;;22.17;52.32;101555.13;143722;595;49002;-88
2021/09/10 04:15:02;;;;;;;3.75;2.92;;;;;;;22.19;52.12;101558.41;143726;696;47004;-88
2021/09/10 04:17:29;;;;;;;4.45;3.12;;;;;;;22.18;51.96;101552.13;143721;593;47010;-90
2021/09/10 04:19:56;;;;;;;7.75;3.33;;;;;;;22.20;51.86;101558.19;143724;596;47004;-90
2021/09/10 04:22:24;;;;;;;5.90;3.65;;;;;;;22.18;51.53;101557.59;143725;566;47014;-88
2021/09/10 04:24:51;;;;;;;6.03;2.87;;;;;;;22.17;51.69;101550.47;143727;597;47004;-89
2021/09/10 04:27:18;;;;;;;5.68;3.75;;;;;;;22.16;51.08;101556.19;143721;589;48010;-89
2021/09/10 04:29:45;;;;;;;5.50;3.62;;;;;;;22.19;51.61;101564.75;143725;742;47002;-88
2021/09/10 04:32:12;;;;;;;5.00;3.30;;;;;;;22.23;51.73;101557.69;143728;582;45925;-92
2021/09/10 04:34:39;;;;;;;5.45;3.45;;;;;;;22.22;51.53;101561.50;143722;598;48002;-90
2021/09/10 04:37:07;;;;;;;5.22;3.00;;;;;;;22.23;51.19;101559.56;143718;575;49002;-89
2021/09/10 04:39:34;;;;;;;4.68;3.15;;;;;;;22.25;51.18;101555.47;143723;586;47003;-88
2021/09/10 04:42:01;;;;;;;5.07;3.12;;;;;;;22.22;51.22;101560.66;143726;588;46004;-89
2021/09/10 04:44:28;;;;;;;6.00;3.30;;;;;;;22.24;51.26;101553.81;143728;588;46010;-89
2021/09/10 04:46:55;;;;;;;11.30;3.30;;;;;;;22.24;51.51;101559.28;143722;607;47012;-90
2021/09/10 04:49:22;;;;;;;5.75;3.42;;;;;;;22.25;51.83;101563.69;143722;574;47004;-89
2021/09/10 04:51:50;;;;;;;7.53;3.17;;;;;;;22.26;51.71;101570.81;143725;668;46002;-90
2021/09/10 04:54:16;;;;;;;4.93;3.20;;;;;;;22.26;51.58;101570.81;143727;672;47004;-92
2021/09/10 04:56:45;;;;;;;6.60;3.92;;;;;;;22.27;51.68;101569.72;143722;703;48002;-88
2021/09/10 04:59:12;;;;;;;4.85;3.40;;;;;;;22.31;52.01;101569.22;143725;596;47004;-89
2021/09/10 05:01:39;;;;;;;5.87;3.12;;;;;;;22.31;52.33;101571.97;143716;575;47010;-90
2021/09/10 05:04:06;;;;;;;5.90;3.20;;;;;;;22.32;51.89;101574.47;143726;586;47002;-90
2021/09/10 05:06:34;;;;;;;6.18;3.30;;;;;;;22.31;52.19;101571.97;143723;576;47010;-92
2021/09/10 05:09:01;;;;;;;6.05;3.47;;;;;;;22.32;52.14;101570.88;143724;579;47004;-89
2021/09/10 05:11:28;;;;;;;7.97;3.55;;;;;;;22.35;52.47;101557.50;143722;595;47006;-91
2021/09/10 05:13:56;;;;;;;4.12;3.40;;;;;;;22.38;51.91;101564.38;143727;635;47002;-91
2021/09/10 05:16:23;;;;;;;5.07;3.67;;;;;;;22.43;51.96;101567.19;143723;578;47006;-89
2021/09/10 05:18:50;;;;;;;6.00;3.58;;;;;;;22.44;51.59;101563.38;143724;576;47004;-88
2021/09/10 05:21:17;;;;;;;6.03;3.28;;;;;;;22.40;51.63;101563.03;143724;598;46000;-90
2021/09/10 05:23:44;;;;;;;9.10;3.65;;;;;;;22.40;51.91;101570.44;143726;577;47004;-90
2021/09/10 05:26:11;;;;;;;4.80;3.75;;;;;;;22.40;51.85;101563.03;143720;573;47008;-91
2021/09/10 05:28:38;;;;;;;5.00;3.72;;;;;;;22.41;51.41;101564.69;143723;573;47008;-91
2021/09/10 05:31:05;;;;;;;6.60;3.42;;;;;;;22.43;51.05;101567.19;143717;663;49006;-90
2021/09/10 05:33:32;;;;;;;6.37;3.10;;;;;;;22.46;51.28;101571.34;143726;625;47010;-90
2021/09/10 05:35:59;;;;;;;7.53;3.60;;;;;;;22.47;51.04;101564.78;143724;604;47027;-88
2021/09/10 05:38:27;;;;;;;5.87;4.28;;;;;;;22.53;51.20;101563.72;143726;586;47002;-91
2021/09/10 05:40:53;;;;;;;6.20;3.62;;;;;;;22.58;50.56;101573.94;143725;598;46008;-89
2021/09/10 05:43:21;;;;;;;6.62;3.25;;;;;;;22.56;50.40;101569.53;143727;712;47010;-90
2021/09/10 05:45:47;;;;;;;5.65;3.75;;;;;;;22.59;50.76;101565.44;143725;690;47011;-89
2021/09/10 05:48:18;;;;;;;8.00;3.55;;;;;;;22.58;50.35;101557.50;143725;575;47004;-89
2021/09/10 05:50:49;;;;;;;7.57;3.83;;;;;;;22.59;50.30;101559.97;143728;572;46002;-89
2021/09/10 05:53:16;;;;;;;6.87;3.90;;;;;;;22.61;50.46;101566.00;143727;576;47012;-88
2021/09/10 05:55:44;;;;;;;5.35;2.80;;;;;;;22.64;50.52;101567.41;143724;596;47010;-89
2021/09/10 05:58:11;;;;;;;9.50;3.70;;;;;;;22.68;50.25;101563.88;143723;572;47012;-90
2021/09/10 06:00:38;;;;;;;5.05;3.67;;;;;;;22.78;50.31;101568.63;143728;584;45920;-90
2021/09/10 06:03:05;;;;;;;4.43;3.10;;;;;;;22.78;50.02;101560.41;143724;581;49014;-92
2021/09/10 06:05:33;;;;;;;7.28;3.58;;;;;;;22.82;50.55;101558.00;143729;663;46922;-89
2021/09/10 06:08:01;;;;;;;5.47;3.55;;;;;;;22.85;50.21;101561.03;143719;661;47008;-89
2021/09/10 06:10:28;;;;;;;7.00;4.15;;;;;;;22.95;50.06;101565.75;143727;668;45921;-91
2021/09/10 06:12:55;;;;;;;6.10;3.80;;;;;;;23.07;50.65;101553.78;143720;593;49004;-90
2021/09/10 06:15:22;;;;;;;7.90;3.80;;;;;;;23.16;50.21;101565.94;143720;627;49009;-89
2021/09/10 06:17:50;;;;;;;7.35;3.97;;;;;;;23.24;50.27;101575.59;143725;578;46010;-91
2021/09/10 06:20:17;;;;;;;10.35;4.43;;;;;;;23.28;49.87;101571.25;143727;606;45924;-88
2021/09/10 06:22:44;;;;;;;6.37;5.22;;;;;;;23.31;49.41;101574.28;143727;641;47004;-88
2021/09/10 06:25:11;;;;;;;12.05;4.78;;;;;;;23.34;49.56;101563.88;143724;725;47011;-91
2021/09/10 06:27:39;;;;;;;11.25;5.12;;;;;;;23.35;49.89;101568.28;143725;615;47004;-88
2021/09/10 06:30:07;;;;;;;12.90;4.47;;;;;;;23.39;49.55;101570.22;143727;569;46002;-89
2021/09/10 06:32:34;;;;;;;7.37;4.22;;;;;;;23.43;50.12;101573.25;143727;612;48002;-88
2021/09/10 06:35:02;;;;;;;10.07;4.37;;;;;;;23.46;49.71;101564.50;143724;601;47027;-91
2021/09/10 06:37:29;;;;;;;7.68;3.75;;;;;;;23.55;49.23;101567.56;143723;626;48004;-92
2021/09/10 06:39:57;;;;;;;8.80;4.32;;;;;;;23.61;49.06;101564.56;143729;572;45923;-88
2021/09/10 06:42:24;;;;;;;9.23;4.87;;;;;;;23.66;47.74;101558.28;143719;573;49002;-88
2021/09/10 06:44:54;;;;;;;3.95;3.10;;;;;;;23.75;47.31;101555.84;143726;600;47008;-90
2021/09/10 06:47:21;;;;;;;5.12;2.92;;;;;;;23.81;47.43;101556.72;143721;640;47002;-87
2021/09/10 06:49:48;;;;;;;5.20;4.00;;;;;;;23.88;46.95;101562.78;143727;577;46004;-90
2021/09/10 06:52:16;;;;;;;7.18;4.40;;;;;;;23.92;46.74;101561.97;143728;672;47003;-90
2021/09/10 06:54:43;;;;;;;6.05;2.83;;;;;;;23.97;45.83;101560.38;143725;639;47011;-90
2021/09/10 06:57:10;;;;;;;4.55;3.20;;;;;;;24.00;46.13;101563.44;143726;664;47006;-88
2021/09/10 06:59:38;;;;;;;8.38;5.07;;;;;;;24.04;46.04;101560.97;143726;588;46002;-90
2021/09/10 07:02:05;;;;;;;5.10;3.42;;;;;;;24.10;46.03;101561.78;143728;588;48004;-88
2021/09/10 07:04:32;;;;;;;3.60;3.28;;;;;;;24.14;45.16;101562.91;143726;609;47008;-88
2021/09/10 07:06:59;;;;;;;6.97;3.28;;;;;;;24.19;45.52;101562.91;143719;651;48004;-87
2021/09/10 07:09:27;;;;;;;5.12;3.70;;;;;;;24.24;45.35;101559.37;143727;715;45922;-88
2021/09/10 07:11:54;;;;;;;6.97;3.80;;;;;;;24.29;45.64;101573.09;143725;585;48016;-90
2021/09/10 07:14:21;;;;;;;6.45;4.10;;;;;;;24.32;44.69;101569.81;143725;575;47012;-89
2021/09/10 07:16:49;;;;;;;6.85;3.55;;;;;;;24.40;45.34;101568.44;143725;584;47002;-88
2021/09/10 07:19:16;;;;;;;6.75;3.78;;;;;;;24.48;44.61;101567.94;143728;598;46004;-88
2021/09/10 07:21:43;;;;;;;6.07;3.37;;;;;;;24.53;44.29;101566.00;143725;575;47002;-89
2021/09/10 07:24:10;;;;;;;9.50;3.10;;;;;;;24.60;43.26;101562.19;143726;586;47011;-89
2021/09/10 07:26:38;;;;;;;5.75;3.33;;;;;;;24.64;43.00;101560.53;143726;655;47002;-88
2021/09/10 07:29:05;;;;;;;5.57;3.12;;;;;;;24.69;43.39;101563.28;143725;662;47004;-89
2021/09/10 07:31:32;;;;;;;5.53;3.45;;;;;;;24.74;42.71;101559.75;143732;573;46004;-90
2021/09/10 07:33:59;;;;;;;5.90;3.20;;;;;;;24.79;42.72;101559.75;143722;597;50004;-89
2021/09/10 07:36:27;;;;;;;6.82;2.87;;;;;;;24.86;42.50;101564.97;143725;651;47013;-89
2021/09/10 07:38:54;;;;;;;5.05;2.95;;;;;;;24.87;41.98;101559.22;143727;583;46008;-91
2021/09/10 07:41:21;;;;;;;6.28;2.62;;;;;;;24.85;41.63;101569.66;143729;592;47004;-89
2021/09/10 07:43:48;;;;;;;3.40;2.78;;;;;;;24.87;42.35;101564.72;143717;634;49008;-89
2021/09/10 07:46:15;;;;;;;4.25;2.70;;;;;;;24.90;41.21;101577.06;143725;612;48008;-88
2021/09/10 07:48:42;;;;;;;3.97;2.50;;;;;;;24.90;41.38;101566.88;143721;695;47006;-89
2021/09/10 07:51:09;;;;;;;3.72;2.80;;;;;;;24.94;41.94;101572.66;143730;577;46004;-89
2021/09/10 07:53:36;;;;;;;3.22;2.40;;;;;;;25.03;41.50;101576.50;143726;575;47012;-88
2021/09/10 07:56:03;;;;;;;5.50;2.80;;;;;;;25.16;41.81;101574.28;143726;601;48004;-89
2021/09/10 07:58:30;;;;;;;5.18;2.55;;;;;;;25.31;41.17;101577.03;143730;576;45924;-90
2021/09/10 08:00:57;;;;;;;3.75;2.87;;;;;;;25.45;41.36;101573.72;143726;712;47004;-89
2021/09/10 08:03:27;;;;;;;3.78;2.90;;;;;;;25.55;41.66;101566.28;143725;572;47010;-91
2021/09/10 08:05:55;;;;;;;3.83;2.92;;;;;;;25.67;41.43;101570.62;143723;569;48002;-91
2021/09/10 08:08:27;;;;;;;3.83;2.80;;;;;;;25.74;41.54;101579.44;143730;625;46006;-91
2021/09/10 08:10:54;;;;;;;3.80;2.90;;;;;;;25.82;41.50;101578.84;143726;668;49002;-90
2021/09/10 08:13:22;;;;;;;4.97;3.30;;;;;;;25.93;41.32;101587.88;143725;572;48004;-95
2021/09/10 08:15:54;;;;;;;4.60;3.42;;;;;;;26.02;41.36;101588.94;143725;568;47002;-91
2021/09/10 08:18:22;;;;;;;9.13;2.87;;;;;;;25.99;41.32;101586.75;143726;604;47006;-91
2021/09/10 08:20:50;;;;;;;5.57;3.28;;;;;;;25.90;41.41;101587.62;143730;596;47004;-92
2021/09/10 08:23:17;;;;;;;4.43;3.03;;;;;;;25.85;42.21;101592.03;143727;645;47004;-92
2021/09/10 08:25:46;;;;;;;3.92;2.62;;;;;;;25.88;41.91;101588.72;143728;606;47010;-93
2021/09/10 08:28:14;;;;;;;4.18;2.55;;;;;;;25.90;41.55;101588.44;143726;578;47004;-94
2021/09/10 08:30:41;;;;;;;4.55;2.60;;;;;;;25.94;41.45;101586.78;143731;581;46006;-93
2021/09/10 08:33:12;;;;;;;4.47;2.80;;;;;;;26.06;41.35;101589.19;143725;579;47010;-91
2021/09/10 08:35:39;;;;;;;4.12;2.80;;;;;;;26.13;41.05;101584.22;143728;740;47006;-92
2021/09/10 08:38:06;;;;;;;7.90;2.35;;;;;;;26.22;40.24;101594.66;143722;641;49004;-91
2021/09/10 08:40:33;;;;;;;7.65;3.30;;;;;;;26.33;40.33;101588.81;143730;655;47002;-91
2021/09/10 11:26:51;;;;;;;6.75;2.33;;;;;;;29.63;34.26;101504.72;143720;572;47008;-64
2021/09/10 11:29:17;;;;;;;5.57;2.60;;;;;;;29.63;34.04;101510.25;143719;666;47925;-64
2021/09/10 11:31:44;;;;;;;4.68;2.97;;;;;;;29.63;33.21;101500.00;143726;611;47922;-64
2021/09/10 11:34:30;;;;;;;4.03;2.47;;;;;;;29.66;33.36;101498.53;143728;607;47000;-63
2021/09/10 11:37:02;;;;;;;4.40;2.47;;;;;;;29.56;33.96;101488.53;143724;595;47010;-63
2021/09/10 11:39:28;;;;;;;11.70;9.43;;;;;;;29.56;33.71;101485.78;143725;592;46574;-63
2021/09/10 11:41:55;;;;;;;7.22;6.18;;;;;;;29.46;33.79;101486.81;143727;718;47006;-65
2021/09/10 11:44:22;;;;;;;8.32;2.85;;;;;;;29.37;34.59;101488.66;143726;567;47002;-64
2021/09/10 11:46:48;;;;;;;6.87;2.78;;;;;;;29.13;34.93;101480.53;143728;643;46010;-65
2021/09/10 11:49:16;;;;;;;3.58;2.40;;;;;;;29.10;34.95;101476.44;143725;572;46006;-64
2021/09/10 11:51:46;;;;;;;4.40;2.37;;;;;;;29.03;34.96;101468.53;143725;587;46007;-64
2021/09/10 11:54:15;;;;;;;4.70;2.28;;;;;;;29.02;34.81;101482.66;143717;585;47000;-66
2021/09/10 11:56:42;;;;;;;4.72;2.35;;;;;;;28.94;35.34;101480.63;143728;713;46010;-64
2021/09/10 11:59:26;;;;;;;3.75;2.40;;;;;;;29.02;35.18;101477.97;143720;615;50004;-64
2021/09/10 12:01:53;;;;;;;5.55;2.30;;;;;;;29.03;35.55;101476.81;143726;567;46006;-63
2021/09/10 12:04:36;;;;;;;3.08;2.00;;;;;;;29.02;35.38;101468.84;143725;577;47004;-64
2021/09/10 12:07:05;;;;;;;3.95;2.50;;;;;;;28.91;35.06;101470.16;143726;653;46008;-64
2021/09/10 12:09:33;;;;;;;4.43;2.97;;;;;;;28.84;35.32;101478.88;143724;575;46010;-65
2021/09/10 12:12:22;;;;;;;4.32;2.50;;;;;;;28.74;35.43;101468.81;143721;655;47006;-65
2021/09/10 12:14:59;;;;;;;4.55;2.60;;;;;;;28.71;35.23;101478.47;143721;665;47005;-63
2021/09/10 12:17:34;;;;;;;4.22;2.72;;;;;;;28.69;35.43;101468.88;143721;584;47019;-63
2021/09/10 12:20:05;;;;;;;5.68;2.75;;;;;;;28.67;35.82;101471.13;143721;600;47004;-63
2021/09/10 12:23:06;;;;;;;5.32;2.65;;;;;;;28.63;35.83;101472.84;143720;569;47006;-65
2021/09/10 12:25:45;;;;;;;3.55;2.35;;;;;;;28.59;35.35;101476.19;143726;661;47008;-65
2021/09/10 12:28:17;;;;;;;4.85;4.07;;;;;;;28.50;35.92;101478.03;143722;650;47008;-65
2021/09/10 12:30:50;;;;;;;3.95;2.33;;;;;;;28.36;36.52;101480.72;143722;729;47004;-68
2021/09/10 12:33:19;;;;;;;3.62;2.50;;;;;;;28.33;36.66;101481.34;143722;679;47006;-64
2021/09/10 12:35:47;;;;;;;3.00;2.40;;;;;;;28.36;37.05;101469.69;143724;573;47004;-64
2021/09/10 12:38:17;;;;;;;3.95;2.58;;;;;;;28.33;36.64;101475.00;143724;568;47010;-64
2021/09/10 12:40:46;;;;;;;2.92;2.47;;;;;;;28.26;36.58;101467.91;143720;568;47004;-64
2021/09/10 12:43:14;;;;;;;3.53;2.83;;;;;;;28.23;36.55;101468.53;143718;678;48006;-64
2021/09/10 12:45:42;;;;;;;5.30;2.83;;;;;;;28.38;36.73;101463.87;143722;618;47006;-63
2021/09/10 12:48:12;;;;;;;5.75;2.50;;;;;;;28.34;35.82;101471.13;143722;574;47012;-66
2021/09/10 12:50:40;;;;;;;3.60;2.47;;;;;;;28.24;36.38;101469.34;143722;573;47004;-64
2021/09/10 12:53:07;;;;;;;3.72;2.70;;;;;;;28.05;36.61;101481.19;143722;667;47006;-64
2021/09/10 12:55:35;;;;;;;5.90;2.45;;;;;;;27.95;36.58;101476.66;143718;591;47006;-65
2021/09/10 12:58:03;;;;;;;6.00;2.70;;;;;;;27.91;36.75;101467.31;143723;679;47008;-64
2021/09/10 13:00:29;;;;;;;4.85;2.80;;;;;;;27.87;35.65;101465.44;143720;697;47008;-65
2021/09/10 13:02:56;;;;;;;4.00;2.85;;;;;;;27.79;36.97;101466.94;143722;573;47008;-65
2021/09/10 13:05:23;;;;;;;3.42;2.28;;;;;;;27.83;36.35;101474.31;143722;577;47003;-64
2021/09/10 13:07:49;;;;;;;4.28;2.58;;;;;;;27.76;36.27;101465.59;143722;675;47008;-63
2021/09/10 13:10:16;;;;;;;4.85;2.90;;;;;;;27.82;36.21;101460.84;143721;653;47006;-65
2021/09/10 13:12:43;;;;;;;3.50;2.25;;;;;;;27.69;36.05;101460.47;143724;573;47009;-64
2021/09/10 13:15:11;;;;;;;4.28;2.62;;;;;;;27.67;36.25;101459.09;143722;601;47004;-64
2021/09/10 13:17:38;;;;;;;4.75;2.65;;;;;;;27.73;35.83;101460.69;143723;681;47010;-64
2021/09/10 13:20:07;;;;;;;2.58;2.28;;;;;;;27.73;35.80;101466.19;143720;579;47006;-64
2021/09/10 13:22:34;;;;;;;4.05;2.67;;;;;;;27.73;35.98;101468.97;143725;595;47006;-64
2021/09/10 13:25:00;;;;;;;2.87;2.40;;;;;;;27.77;35.46;101463.66;143722;593;47006;-65
2021/09/10 13:27:27;;;;;;;3.85;2.35;;;;;;;27.78;35.67;101457.84;143720;658;47011;-65
2021/09/10 13:29:54;;;;;;;6.05;2.40;;;;;;;27.84;35.19;101462.16;143722;694;47004;-64
2021/09/10 13:32:20;;;;;;;7.68;2.80;;;;;;;27.92;35.99;101457.91;143719;581;47008;-64
2021/09/10 13:34:46;;;;;;;3.67;2.75;;;;;;;27.94;35.46;101447.37;143724;628;47002;-64
2021/09/10 13:37:13;;;;;;;3.58;2.67;;;;;;;27.97;35.18;101449.56;143724;669;47010;-64
2021/09/10 13:39:45;;;;;;;5.05;2.67;;;;;;;27.98;35.67;101442.91;143718;578;47006;-65
2021/09/10 13:42:11;;;;;;;4.30;2.83;;;;;;;27.99;35.57;101446.47;143722;660;47006;-64
2021/09/10 13:44:38;;;;;;;5.95;2.42;;;;;;;28.01;36.10;101437.91;143721;617;47004;-64
2021/09/10 13:47:05;;;;;;;5.82;2.72;;;;;;;28.06;35.69;101446.13;143722;625;46016;-64
2021/09/10 13:49:32;;;;;;;4.57;2.80;;;;;;;28.08;35.42;101435.56;143720;586;47004;-65
2021/09/10 13:51:58;;;;;;;3.95;2.37;;;;;;;28.13;35.20;101443.81;143720;621;47009;-65
2021/09/10 13:54:25;;;;;;;5.12;3.22;;;;;;;28.11;35.50;101449.66;143720;696;47004;-64
2021/09/10 13:56:51;;;;;;;7.55;2.58;;;;;;;27.99;35.77;101444.56;143721;569;47008;-64
2021/09/10 13:59:19;;;;;;;5.75;3.12;;;;;;;27.89;36.07;101432.84;143720;631;47006;-64
2021/09/10 14:01:46;;;;;;;5.17;3.10;;;;;;;27.95;36.75;101431.66;126597;57;10003099;-64
2021/09/10 14:04:12;;;;;;;6.90;3.30;;;;;;;27.98;36.55;101428.28;143720;567;47008;-65
2021/09/10 14:06:38;;;;;;;5.07;3.30;;;;;;;27.95;37.10;101420.63;143719;583;47006;-64
2021/09/10 14:09:05;;;;;;;4.55;2.60;;;;;;;27.82;36.26;101423.00;143722;584;47002;-64
2021/09/10 14:11:31;;;;;;;3.50;2.83;;;;;;;27.82;36.74;101422.19;143721;573;47008;-64